createdAt,value
2023-01-02T00:00:59.495Z,13.98
2023-01-02T00:03:26.507Z,14.02
2023-01-02T00:05:54.541Z,14.10
2023-01-02T00:08:21.188Z,14.11
2023-01-02T00:10:47.891Z,14.06
2023-01-02T00:13:14.894Z,14.02
2023-01-02T00:15:41.533Z,14.01
2023-01-02T00:18:08.284Z,14.08
2023-01-02T00:20:34.967Z,14.16
2023-01-02T00:23:01.614Z,14.16
2023-01-02T00:25:28.367Z,14.13
2023-01-02T00:27:56.185Z,14.20
2023-01-02T00:30:23.005Z,14.02
2023-01-02T00:32:49.637Z,14.04
2023-01-02T00:35:16.388Z,14.15
2023-01-02T00:37:42.996Z,14.24
2023-01-02T00:40:13.945Z,14.16
2023-01-02T00:42:41.464Z,14.35
2023-01-02T00:45:09.910Z,14.35
2023-01-02T00:47:37.147Z,14.29
2023-01-02T00:50:04.750Z,14.30
2023-01-02T00:52:31.578Z,14.18
2023-01-02T00:54:58.206Z,14.38
2023-01-02T00:57:24.872Z,14.31
2023-01-02T00:59:51.475Z,14.28
2023-01-02T01:02:18.232Z,14.48
2023-01-02T01:04:44.993Z,14.37
2023-01-02T01:07:11.608Z,14.40
2023-01-02T01:09:38.211Z,14.34
2023-01-02T01:12:05.356Z,14.29
2023-01-02T01:14:32.254Z,14.18
2023-01-02T01:16:59.856Z,14.34
2023-01-02T01:19:34.208Z,14.32
2023-01-02T01:22:00.867Z,14.19
2023-01-02T01:24:27.946Z,14.14
2023-01-02T01:26:54.619Z,14.11
2023-01-02T01:29:21.376Z,14.30
2023-01-02T01:31:48.049Z,14.25
2023-01-02T01:34:14.833Z,14.16
2023-01-02T01:36:41.568Z,14.12
2023-01-02T01:39:08.262Z,14.24
2023-01-02T01:41:34.986Z,14.14
2023-01-02T01:44:01.739Z,14.09
2023-01-02T01:46:46.454Z,14.31
2023-01-02T01:49:27.648Z,14.34
2023-01-02T01:52:03.636Z,14.02
2023-01-02T01:54:35.199Z,14.25
2023-01-02T01:57:12.347Z,14.33
2023-01-02T01:59:39.568Z,14.20
2023-01-02T02:02:06.952Z,14.06
2023-01-02T02:04:34.295Z,14.21
2023-01-02T02:07:01.812Z,14.20
2023-01-02T02:09:35.596Z,14.19
2023-01-02T02:12:04.465Z,14.23
2023-01-02T02:14:31.139Z,14.17
2023-01-02T02:17:36.417Z,14.09
2023-01-02T02:20:27.180Z,14.18
2023-01-02T02:23:18.975Z,14.16
2023-01-02T02:25:59.947Z,14.06
2023-01-02T02:29:04.528Z,14.04
2023-01-02T02:31:59.485Z,14.11
2023-01-02T02:34:40.213Z,14.00
2023-01-02T02:37:34.022Z,14.20
2023-01-02T02:40:10.050Z,14.05
2023-01-02T02:42:52.666Z,14.15
2023-01-02T02:45:38.281Z,13.94
2023-01-02T02:48:13.805Z,14.07
2023-01-02T02:51:00.925Z,14.13
2023-01-02T02:53:35.968Z,14.13
2023-01-02T02:56:07.944Z,14.17
2023-01-02T02:58:36.278Z,14.11
2023-01-02T03:01:06.002Z,13.93
2023-01-02T03:03:33.254Z,13.82
2023-01-02T03:06:18.149Z,13.92
2023-01-02T03:09:22.566Z,13.83
2023-01-02T03:12:10.363Z,13.88
2023-01-02T03:14:51.474Z,13.93
2023-01-02T03:17:22.998Z,13.84
2023-01-02T03:19:57.450Z,14.08
2023-01-02T03:22:31.592Z,13.97
2023-01-02T03:24:59.219Z,13.96
2023-01-02T03:27:30.104Z,14.02
2023-01-02T03:30:10.977Z,14.04
2023-01-02T03:32:43.673Z,14.06
2023-01-02T03:35:19.691Z,14.05
2023-01-02T03:37:51.414Z,13.93
2023-01-02T03:40:24.991Z,13.83
2023-01-02T03:43:21.450Z,13.95
2023-01-02T03:46:01.663Z,13.93
2023-01-02T03:48:34.888Z,14.06
2023-01-02T03:51:03.745Z,13.99
2023-01-02T03:53:33.760Z,13.94
2023-01-02T03:56:11.202Z,13.85
2023-01-02T03:58:43.783Z,13.80
2023-01-02T04:01:20.677Z,13.91
2023-01-02T04:03:52.872Z,13.88
2023-01-02T04:06:24.949Z,13.90
2023-01-02T04:09:00.394Z,13.82
2023-01-02T04:11:30.459Z,14.00
2023-01-02T04:14:03.254Z,13.94
2023-01-02T04:16:34.546Z,13.97
2023-01-02T04:19:21.473Z,13.88
2023-01-02T04:21:50.002Z,13.76
2023-01-02T04:24:27.099Z,13.78
2023-01-02T04:27:09.772Z,13.98
2023-01-02T04:29:36.467Z,13.93
2023-01-02T04:32:30.923Z,13.76
2023-01-02T04:34:59.224Z,13.88
2023-01-02T04:37:31.683Z,13.80
2023-01-02T04:40:04.077Z,13.64
2023-01-02T04:42:35.651Z,13.90
2023-01-02T04:45:03.260Z,13.63
2023-01-02T04:47:30.151Z,13.60
2023-01-02T04:49:56.798Z,13.58
2023-01-02T04:52:23.462Z,13.60
2023-01-02T04:54:50.140Z,13.59
2023-01-02T04:57:16.839Z,13.63
2023-01-02T04:59:43.470Z,13.60
2023-01-02T05:02:10.247Z,13.55
2023-01-02T05:04:37.095Z,13.70
2023-01-02T05:07:04.506Z,13.66
2023-01-02T05:09:31.134Z,13.62
2023-01-02T05:11:57.864Z,13.45
2023-01-02T05:14:24.562Z,13.54
2023-01-02T05:16:51.241Z,13.53
2023-01-02T05:19:17.919Z,13.58
2023-01-02T05:22:03.406Z,13.52
2023-01-02T05:24:30.073Z,13.52
2023-01-02T05:26:56.697Z,13.46
2023-01-02T05:29:23.537Z,13.64
2023-01-02T05:31:50.686Z,13.55
2023-01-02T05:34:17.541Z,13.50
2023-01-02T05:36:44.383Z,13.48
2023-01-02T05:39:12.510Z,13.38
2023-01-02T05:41:40.069Z,13.48
2023-01-02T05:44:08.674Z,13.50
2023-01-02T05:46:36.495Z,13.60
2023-01-02T05:49:10.666Z,13.41
2023-01-02T05:51:37.560Z,13.55
2023-01-02T05:54:05.059Z,13.66
2023-01-02T05:56:32.089Z,13.42
2023-01-02T05:58:58.705Z,13.59
2023-01-02T06:01:28.006Z,13.41
2023-01-02T06:03:57.960Z,13.40
2023-01-02T06:06:29.521Z,13.38
2023-01-02T06:08:56.326Z,13.44
2023-01-02T06:11:22.953Z,13.49
2023-01-02T06:13:49.548Z,13.35
2023-01-02T06:16:16.320Z,13.40
2023-01-02T06:18:43.038Z,13.36
2023-01-02T06:21:15.398Z,13.35
2023-01-02T06:23:42.868Z,13.42
2023-01-02T06:26:13.800Z,13.50
2023-01-02T06:28:40.846Z,13.36
2023-01-02T06:31:18.863Z,13.44
2023-01-02T06:33:46.019Z,13.45
2023-01-02T06:36:18.315Z,13.33
2023-01-02T06:38:45.800Z,13.42
2023-01-02T06:41:12.903Z,13.30
2023-01-02T06:43:45.824Z,13.28
2023-01-02T06:46:19.522Z,13.45
2023-01-02T06:48:46.981Z,13.31
2023-01-02T06:51:16.524Z,13.30
2023-01-02T06:53:44.467Z,13.32
2023-01-02T06:56:12.540Z,13.41
2023-01-02T06:58:39.720Z,13.42
2023-01-02T07:01:09.139Z,13.46
2023-01-02T07:03:36.556Z,13.52
2023-01-02T07:06:10.552Z,13.34
2023-01-02T07:08:37.565Z,13.33
2023-01-02T07:11:19.207Z,13.43
2023-01-02T07:13:47.843Z,13.53
2023-01-02T07:16:16.260Z,13.50
2023-01-02T07:18:43.516Z,13.44
2023-01-02T07:21:12.049Z,13.49
2023-01-02T07:23:38.824Z,13.60
2023-01-02T07:26:06.955Z,13.60
2023-01-02T07:28:34.868Z,13.87
2023-01-02T07:31:05.554Z,13.74
2023-01-02T07:33:33.268Z,13.69
2023-01-02T07:36:04.993Z,13.72
2023-01-02T07:38:31.825Z,13.68
2023-01-02T07:40:58.607Z,13.70
2023-01-02T07:43:25.689Z,13.66
2023-01-02T07:45:52.428Z,13.81
2023-01-02T07:48:19.195Z,13.68
2023-01-02T07:50:46.415Z,13.90
2023-01-02T07:53:13.131Z,14.25
2023-01-02T07:55:39.919Z,14.25
2023-01-02T07:58:07.173Z,14.23
2023-01-02T08:00:33.803Z,14.04
2023-01-02T08:03:00.987Z,14.11
2023-01-02T08:05:27.843Z,14.02
2023-01-02T08:07:54.484Z,14.05
2023-01-02T08:10:21.169Z,14.04
2023-01-02T08:12:47.812Z,13.90
2023-01-02T08:15:14.568Z,13.96
2023-01-02T08:17:41.549Z,13.95
2023-01-02T08:20:09.364Z,14.01
2023-01-02T08:22:36.242Z,14.13
2023-01-02T08:25:03.856Z,14.11
2023-01-02T08:27:30.704Z,14.10
2023-01-02T08:29:57.385Z,14.19
2023-01-02T08:32:24.126Z,14.27
2023-01-02T08:34:50.820Z,14.11
2023-01-02T08:37:17.667Z,14.31
2023-01-02T08:39:44.309Z,14.27
2023-01-02T08:42:11.175Z,14.27
2023-01-02T08:44:38.241Z,14.43
2023-01-02T08:47:05.685Z,14.42
2023-01-02T08:49:32.474Z,14.40
2023-01-02T08:51:59.219Z,14.37
2023-01-02T08:54:26.261Z,14.37
2023-01-02T08:56:53.160Z,14.19
2023-01-02T08:59:20.039Z,14.19
2023-01-02T09:01:46.887Z,14.14
2023-01-02T09:04:13.930Z,14.12
2023-01-02T09:06:42.011Z,14.29
2023-01-02T09:09:12.557Z,14.31
2023-01-02T09:11:44.788Z,14.12
2023-01-02T09:14:11.506Z,14.28
2023-01-02T09:16:38.190Z,14.28
2023-01-02T09:19:05.090Z,14.33
2023-01-02T09:21:32.084Z,14.33
2023-01-02T09:23:59.377Z,14.22
2023-01-02T09:26:26.459Z,14.22
2023-01-02T09:28:53.589Z,14.34
2023-01-02T09:31:20.723Z,14.40
2023-01-02T09:33:48.188Z,14.47
2023-01-02T09:36:24.582Z,14.52
2023-01-02T09:38:53.218Z,14.54
2023-01-02T09:41:25.269Z,14.61
2023-01-02T09:44:33.438Z,14.65
2023-01-02T09:47:11.064Z,14.65
2023-01-02T09:49:45.484Z,14.84
2023-01-02T09:52:18.567Z,14.97
2023-01-02T09:54:45.210Z,15.06
2023-01-02T09:57:32.231Z,15.01
2023-01-02T10:00:04.823Z,15.20
2023-01-02T10:02:45.198Z,15.28
2023-01-02T10:05:38.413Z,15.22
2023-01-02T10:08:31.422Z,15.28
2023-01-02T10:11:09.799Z,15.51
2023-01-02T10:16:49.741Z,15.64
2023-01-02T10:19:40.803Z,15.67
2023-01-02T10:22:12.718Z,15.60
2023-01-02T10:24:45.859Z,15.65
2023-01-02T10:27:18.399Z,15.70
2023-01-02T10:30:02.973Z,15.70
2023-01-02T10:32:32.771Z,15.77
2023-01-02T10:35:14.706Z,15.81
2023-01-02T10:37:41.396Z,15.92
2023-01-02T10:40:08.566Z,16.04
2023-01-02T10:42:35.199Z,16.12
2023-01-02T10:45:02.833Z,15.93
2023-01-02T10:47:37.647Z,15.83
2023-01-02T10:50:14.992Z,15.84
2023-01-02T10:52:52.971Z,15.79
2023-01-02T10:55:36.887Z,15.87
2023-01-02T10:58:06.238Z,15.86
2023-01-02T11:00:35.556Z,15.73
2023-01-02T11:03:23.698Z,15.69
2023-01-02T11:05:53.553Z,15.70
2023-01-02T11:08:34.192Z,15.72
2023-01-02T11:11:03.463Z,15.62
2023-01-02T11:13:48.959Z,15.45
2023-01-02T11:16:21.339Z,15.48
2023-01-02T11:18:56.545Z,15.43
2023-01-02T11:21:29.953Z,15.28
2023-01-02T11:24:05.558Z,15.31
2023-01-02T11:26:34.355Z,15.38
2023-01-02T11:29:09.280Z,15.40
2023-01-02T11:31:43.365Z,15.35
2023-01-02T11:34:19.340Z,15.36
2023-01-02T11:37:00.288Z,15.40
2023-01-02T11:39:26.908Z,15.30
2023-01-02T11:42:27.302Z,15.36
2023-01-02T11:45:06.271Z,15.33
2023-01-02T11:47:38.055Z,15.34
2023-01-02T11:50:05.225Z,15.38
2023-01-02T11:53:00.022Z,15.36
2023-01-02T11:55:35.692Z,15.41
2023-01-02T11:58:37.553Z,15.38
2023-01-02T12:01:17.282Z,15.34
2023-01-02T12:03:44.390Z,15.36
2023-01-02T12:06:23.902Z,15.38
2023-01-02T12:08:56.693Z,15.34
2023-01-02T12:11:45.180Z,15.41
2023-01-02T12:14:18.324Z,15.38
2023-01-02T12:17:14.507Z,15.31
2023-01-02T12:19:49.536Z,15.35
2023-01-02T12:22:25.015Z,15.28
2023-01-02T12:25:08.384Z,15.14
2023-01-02T12:27:58.407Z,14.96
2023-01-02T12:30:25.304Z,15.02
2023-01-02T12:33:17.651Z,14.93
2023-01-02T12:36:05.583Z,14.76
2023-01-02T12:39:37.176Z,14.65
2023-01-02T12:42:16.056Z,14.66
2023-01-02T12:44:55.076Z,14.67
2023-01-02T12:47:48.884Z,14.72
2023-01-02T12:50:27.071Z,14.70
2023-01-02T12:53:13.767Z,14.55
2023-01-02T12:55:49.439Z,14.49
2023-01-02T12:58:48.356Z,14.46
2023-01-02T13:01:53.611Z,14.35
2023-01-02T13:04:23.622Z,14.37
2023-01-02T13:06:56.369Z,14.38
2023-01-02T13:09:37.793Z,14.36
2023-01-02T13:12:10.160Z,14.26
2023-01-02T13:14:49.060Z,14.29
2023-01-02T13:17:38.557Z,14.21
2023-01-02T13:20:12.833Z,14.36
2023-01-02T13:22:47.753Z,14.48
2023-01-02T13:25:20.362Z,14.52
2023-01-02T13:27:48.779Z,14.29
2023-01-02T13:30:33.477Z,14.40
2023-01-02T13:33:02.687Z,14.34
2023-01-02T13:35:35.097Z,14.45
2023-01-02T13:38:05.922Z,14.47
2023-01-02T13:40:33.693Z,14.48
2023-01-02T13:43:08.295Z,14.48
2023-01-02T13:45:55.152Z,14.49
2023-01-02T13:48:46.090Z,14.36
2023-01-02T13:51:16.606Z,14.39
2023-01-02T13:53:46.209Z,14.38
2023-01-02T13:56:21.832Z,14.47
2023-01-02T13:58:57.602Z,14.37
2023-01-02T14:01:24.620Z,14.32
2023-01-02T14:04:09.643Z,14.32
2023-01-02T14:06:48.581Z,14.33
2023-01-02T14:09:23.647Z,14.29
2023-01-02T14:11:57.039Z,14.37
2023-01-02T14:14:37.082Z,14.38
2023-01-02T14:17:22.409Z,14.29
2023-01-02T14:20:15.370Z,14.26
2023-01-02T14:22:47.980Z,14.27
2023-01-02T14:25:15.945Z,14.25
2023-01-02T14:27:59.339Z,14.18
2023-01-02T14:30:41.041Z,14.16
2023-01-02T14:33:10.128Z,14.12
2023-01-02T14:35:48.970Z,14.18
2023-01-02T14:38:22.725Z,14.21
2023-01-02T14:40:50.301Z,14.14
2023-01-02T14:43:30.692Z,14.08
2023-01-02T14:46:18.882Z,13.98
2023-01-02T14:49:24.803Z,14.05
2023-01-02T14:52:02.384Z,14.02
2023-01-02T14:54:47.959Z,14.01
2023-01-02T14:57:34.697Z,14.06
2023-01-02T15:00:11.729Z,14.02
2023-01-02T15:02:47.601Z,14.07
2023-01-02T15:05:26.564Z,14.04
2023-01-02T15:07:58.870Z,14.08
2023-01-02T15:10:26.339Z,14.12
2023-01-02T15:13:07.053Z,14.16
2023-01-02T15:15:42.738Z,14.11
2023-01-02T15:18:20.473Z,14.13
2023-01-02T15:20:53.112Z,14.11
2023-01-02T15:23:27.272Z,14.08
2023-01-02T15:26:33.218Z,14.12
2023-01-02T15:28:41.727Z,14.07
2023-01-02T15:31:14.266Z,14.08
2023-01-02T15:33:41.550Z,14.14
2023-01-02T15:36:13.439Z,14.12
2023-01-02T15:38:41.056Z,14.06
2023-01-02T15:41:15.482Z,14.04
2023-01-02T15:44:00.830Z,14.02
2023-01-02T15:46:28.108Z,13.99
2023-01-02T15:48:55.485Z,13.94
2023-01-02T15:51:40.404Z,14.01
2023-01-02T15:54:15.561Z,13.89
2023-01-02T15:56:42.800Z,13.87
2023-01-02T15:59:30.484Z,13.91
2023-01-02T16:01:57.312Z,13.55
2023-01-02T16:04:33.134Z,13.32
2023-01-02T16:07:20.925Z,13.25
2023-01-02T16:09:54.261Z,13.15
2023-01-02T16:12:22.829Z,13.01
2023-01-02T16:14:55.470Z,13.04
2023-01-02T16:17:36.763Z,13.17
2023-01-02T16:20:17.847Z,13.07
2023-01-02T16:22:53.230Z,13.14
2023-01-02T16:25:24.098Z,12.96
2023-01-02T16:28:35.128Z,12.92
2023-01-02T16:31:14.291Z,12.98
2023-01-02T16:33:42.180Z,13.06
2023-01-02T16:36:29.626Z,13.18
2023-01-02T16:38:59.467Z,13.17
2023-01-02T16:41:38.092Z,13.16
2023-01-02T16:44:12.857Z,12.94
2023-01-02T16:46:44.210Z,12.95
2023-01-02T16:49:16.542Z,12.91
2023-01-02T16:51:45.196Z,12.93
2023-01-02T16:54:13.550Z,12.97
2023-01-02T16:56:40.451Z,12.92
2023-01-02T16:59:07.519Z,12.92
2023-01-02T17:01:34.404Z,12.89
2023-01-02T17:04:01.299Z,12.71
2023-01-02T17:06:28.043Z,12.49
2023-01-02T17:08:54.840Z,12.43
2023-01-02T17:11:24.532Z,12.33
2023-01-02T17:13:52.154Z,12.25
2023-01-02T17:16:19.991Z,12.33
2023-01-02T17:18:46.863Z,12.32
2023-01-02T17:21:13.596Z,12.35
2023-01-02T17:23:40.283Z,12.17
2023-01-02T17:26:06.932Z,12.02
2023-01-02T17:28:33.647Z,11.97
2023-01-02T17:31:00.471Z,12.08
2023-01-02T17:33:27.286Z,12.15
2023-01-02T17:35:53.889Z,12.10
2023-01-02T17:38:20.581Z,12.11
2023-01-02T17:40:47.574Z,12.12
2023-01-02T17:43:14.410Z,12.20
2023-01-02T17:45:42.778Z,12.31
2023-01-02T17:48:12.664Z,12.26
2023-01-02T17:50:40.933Z,12.18
2023-01-02T17:53:08.541Z,12.17
2023-01-02T17:55:35.529Z,11.95
2023-01-02T17:58:03.557Z,12.06
2023-01-02T18:00:30.300Z,12.06
2023-01-02T18:02:57.025Z,11.87
2023-01-02T18:05:24.378Z,12.03
2023-01-02T18:07:51.073Z,12.18
2023-01-02T18:10:20.546Z,12.12
2023-01-02T18:12:49.296Z,12.09
2023-01-02T18:15:18.108Z,12.11
2023-01-02T18:17:45.016Z,12.18
2023-01-02T18:20:17.366Z,12.22
2023-01-02T18:22:49.620Z,12.15
2023-01-02T18:25:24.514Z,12.12
2023-01-02T18:28:00.182Z,12.08
2023-01-02T18:30:27.723Z,12.07
2023-01-02T18:33:11.028Z,12.05
2023-01-02T18:38:32.563Z,11.98
2023-01-02T18:40:59.431Z,11.96
2023-01-02T18:43:35.498Z,12.05
2023-01-02T18:46:13.720Z,12.00
2023-01-02T18:48:41.006Z,11.98
2023-01-02T18:51:21.183Z,11.99
2023-01-02T18:53:56.922Z,12.02
2023-01-02T18:56:27.292Z,11.98
2023-01-02T18:59:18.926Z,12.00
2023-01-02T19:01:50.946Z,11.99
2023-01-02T19:04:28.183Z,11.93
2023-01-02T19:07:00.102Z,11.94
2023-01-02T19:09:35.454Z,11.90
2023-01-02T19:12:41.816Z,11.90
2023-01-02T19:15:39.850Z,11.89
2023-01-02T19:18:19.711Z,11.88
2023-01-02T19:21:02.215Z,11.73
2023-01-02T19:23:32.459Z,11.81
2023-01-02T19:26:21.301Z,11.76
2023-01-02T19:28:54.065Z,11.80
2023-01-02T19:31:21.760Z,11.84
2023-01-02T19:33:52.791Z,11.70
2023-01-02T19:36:24.966Z,11.73
2023-01-02T19:38:52.196Z,11.77
2023-01-02T19:41:39.088Z,11.81
2023-01-02T19:44:05.883Z,11.85
2023-01-02T19:46:32.605Z,11.68
2023-01-02T19:48:59.395Z,11.85
2023-01-02T19:51:32.209Z,11.78
2023-01-02T19:54:03.968Z,11.82
2023-01-02T19:56:31.861Z,11.76
2023-01-02T19:58:58.475Z,11.77
2023-01-02T20:01:25.303Z,11.88
2023-01-02T20:03:52.104Z,11.86
2023-01-02T20:06:18.905Z,11.93
2023-01-02T20:08:47.212Z,11.80
2023-01-02T20:11:33.912Z,11.88
2023-01-02T20:14:00.527Z,11.85
2023-01-02T20:16:27.263Z,11.75
2023-01-02T20:18:54.044Z,11.73
2023-01-02T20:21:22.033Z,11.78
2023-01-02T20:23:56.020Z,11.74
2023-01-02T20:26:23.249Z,11.71
2023-01-02T20:28:49.909Z,11.69
2023-01-02T20:31:17.310Z,11.69
2023-01-02T20:33:43.955Z,11.67
2023-01-02T20:36:13.981Z,11.56
2023-01-02T20:38:40.784Z,11.53
2023-01-02T20:41:07.542Z,11.55
2023-01-02T20:43:34.254Z,11.55
2023-01-02T20:46:01.079Z,11.54
2023-01-02T20:48:27.940Z,11.62
2023-01-02T20:50:55.189Z,11.63
2023-01-02T20:53:21.981Z,11.68
2023-01-02T20:55:50.845Z,11.63
2023-01-02T20:58:17.569Z,11.58
2023-01-02T21:00:44.989Z,11.57
2023-01-02T21:03:11.928Z,11.67
2023-01-02T21:05:42.083Z,11.70
2023-01-02T21:08:10.697Z,11.59
2023-01-02T21:10:37.508Z,11.54
2023-01-02T21:13:07.501Z,11.43
2023-01-02T21:15:53.581Z,11.55
2023-01-02T21:18:40.000Z,11.53
2023-01-02T21:21:15.334Z,11.48
2023-01-02T21:23:42.119Z,11.43
2023-01-02T21:26:14.330Z,11.20
2023-01-02T21:28:43.993Z,11.44
2023-01-02T21:31:11.786Z,11.46
2023-01-02T21:33:38.741Z,11.45
2023-01-02T21:36:08.612Z,11.37
2023-01-02T21:38:36.190Z,11.36
2023-01-02T21:41:21.297Z,11.33
2023-01-02T21:43:48.824Z,11.27
2023-01-02T21:46:16.311Z,11.19
2023-01-02T21:48:43.143Z,11.26
2023-01-02T21:51:09.893Z,11.27
2023-01-02T21:53:36.543Z,11.23
2023-01-02T21:56:03.541Z,11.17
2023-01-02T21:58:30.455Z,11.25
2023-01-02T22:00:57.288Z,11.20
2023-01-02T22:03:24.163Z,11.21
2023-01-02T22:05:50.934Z,11.21
2023-01-02T22:08:17.651Z,11.12
2023-01-02T22:10:44.231Z,11.11
2023-01-02T22:13:10.925Z,11.15
2023-01-02T22:15:37.572Z,11.11
2023-01-02T22:18:04.460Z,11.12
2023-01-02T22:20:32.296Z,11.03
2023-01-02T22:22:59.047Z,11.00
2023-01-02T22:25:25.785Z,10.92
2023-01-02T22:27:52.512Z,10.89
2023-01-02T22:30:24.353Z,10.83
2023-01-02T22:32:54.724Z,10.94
2023-01-02T22:35:21.670Z,10.94
2023-01-02T22:37:48.474Z,11.04
2023-01-02T22:40:15.224Z,11.09
2023-01-02T22:43:02.097Z,11.09
2023-01-02T22:45:35.463Z,11.02
2023-01-02T22:48:05.914Z,10.96
2023-01-02T22:50:41.530Z,10.96
2023-01-02T22:53:31.919Z,10.98
2023-01-02T22:56:00.649Z,10.95
2023-01-02T22:58:27.702Z,10.93
2023-01-02T23:01:10.222Z,10.84
2023-01-02T23:03:41.982Z,10.81
2023-01-02T23:06:08.916Z,10.85
2023-01-02T23:08:36.254Z,10.90
2023-01-02T23:11:04.093Z,10.97
2023-01-02T23:13:33.109Z,10.93
2023-01-02T23:16:18.550Z,10.93
2023-01-02T23:19:04.148Z,10.93
2023-01-02T23:21:32.735Z,10.79
2023-01-02T23:23:59.605Z,10.94
2023-01-02T23:26:34.544Z,10.94
2023-01-02T23:29:09.136Z,11.02
2023-01-02T23:31:39.034Z,10.88
2023-01-02T23:34:06.576Z,10.47
2023-01-02T23:36:34.100Z,10.32
2023-01-02T23:39:00.800Z,10.52
2023-01-02T23:41:27.605Z,10.93
2023-01-02T23:43:54.353Z,10.68
2023-01-02T23:46:21.038Z,10.44
2023-01-02T23:48:48.395Z,10.70
2023-01-02T23:51:15.254Z,10.66
2023-01-02T23:53:41.889Z,10.52
2023-01-02T23:56:23.003Z,10.35
2023-01-02T23:58:54.298Z,10.27
